Biltmore Lake, North Carolina
Current Conditions -  °F | °C
As of 6:54 AM on Sunday 25 Jan 2015 (Local Time) from KAVL Reporting Station
Clear Clear  
Wind Chill: 27°   Ceiling: Unl
Heat Index: 27°   Visibility: 10mi
Dew Point: 24°   Wind: 0mph
Humidity: 89%   Direction: NA
Pressure: 29.89"   Gusts: NA
Location:  35.516°N, 82.718°W
Report Text: KAVL 251154Z 00000KT 10SM CLR M03/M04 A2989 RMK AO2 SLP133 T10281044 10017 21033 51013
Loading
Personal Weather Stations






























Interactive Weather Map New forecast layout! Learn more

10-Day Weather Forecast

Advertisements
Track Severe Weather on mobile